createdAt,value
2019-03-23T00:00:44.102Z,7.00
2019-03-23T00:03:12.590Z,7.50
2019-03-23T00:05:41.051Z,7.03
2019-03-23T00:08:09.622Z,7.07
2019-03-23T00:10:38.155Z,8.37
2019-03-23T00:13:06.619Z,6.53
2019-03-23T00:15:35.182Z,7.40
2019-03-23T00:18:03.743Z,8.03
2019-03-23T00:20:32.206Z,7.10
2019-03-23T00:23:00.670Z,7.00
2019-03-23T00:25:29.223Z,7.10
2019-03-23T00:27:57.687Z,6.97
2019-03-23T00:30:26.187Z,6.83
2019-03-23T00:32:54.651Z,6.83
2019-03-23T00:35:23.202Z,7.07
2019-03-23T00:37:51.694Z,6.50
2019-03-23T00:40:20.150Z,7.00
2019-03-23T00:42:48.649Z,6.60
2019-03-23T00:45:17.387Z,6.87
2019-03-23T00:47:45.881Z,7.20
2019-03-23T00:50:14.574Z,6.60
2019-03-23T00:52:43.049Z,7.00
2019-03-23T00:55:11.683Z,6.17
2019-03-23T00:57:40.147Z,6.80
2019-03-23T01:00:11.291Z,7.20
2019-03-23T01:02:41.869Z,7.00
2019-03-23T01:05:10.662Z,6.77
2019-03-23T01:07:39.337Z,7.00
2019-03-23T01:10:10.126Z,6.80
2019-03-23T01:12:38.587Z,7.03
2019-03-23T01:15:09.394Z,6.87
2019-03-23T01:17:37.955Z,6.77
2019-03-23T01:20:10.975Z,10.67
2019-03-23T01:22:39.700Z,6.93
2019-03-23T01:25:10.135Z,6.63
2019-03-23T01:27:38.767Z,6.83
2019-03-23T01:30:12.775Z,6.97
2019-03-23T01:32:41.378Z,7.07
2019-03-23T01:35:10.138Z,7.50
2019-03-23T01:37:38.638Z,7.03
2019-03-23T01:40:08.010Z,7.80
2019-03-23T01:42:36.538Z,6.60
2019-03-23T01:45:10.656Z,7.67
2019-03-23T01:47:39.219Z,7.77
2019-03-23T01:50:09.094Z,7.87
2019-03-23T01:52:37.650Z,7.97
2019-03-23T01:55:09.445Z,7.67
2019-03-23T01:57:38.182Z,7.70
2019-03-23T02:00:08.833Z,7.50
2019-03-23T02:02:37.462Z,7.60
2019-03-23T02:05:07.679Z,7.13
2019-03-23T02:07:36.174Z,7.57
2019-03-23T02:10:09.318Z,7.70
2019-03-23T02:12:37.870Z,7.30
2019-03-23T02:15:11.514Z,7.10
2019-03-23T02:17:40.140Z,7.67
2019-03-23T02:20:10.967Z,7.77
2019-03-23T02:22:39.642Z,7.17
2019-03-23T02:25:08.243Z,8.00
2019-03-23T02:27:36.798Z,7.00
2019-03-23T02:30:11.068Z,7.47
2019-03-23T02:32:39.608Z,7.53
2019-03-23T02:35:09.244Z,7.47
2019-03-23T02:37:37.779Z,7.87
2019-03-23T02:40:08.224Z,8.10
2019-03-23T02:42:36.743Z,8.07
2019-03-23T02:45:08.317Z,8.67
2019-03-23T02:47:36.846Z,8.20
2019-03-23T02:50:10.051Z,8.40
2019-03-23T02:52:38.590Z,8.50
2019-03-23T02:55:09.695Z,8.30
2019-03-23T02:57:38.293Z,8.70
2019-03-23T03:00:14.672Z,8.83
2019-03-23T03:02:43.208Z,8.57
2019-03-23T03:05:12.108Z,8.07
2019-03-23T03:07:43.316Z,8.27
2019-03-23T03:10:12.895Z,9.27
2019-03-23T03:12:41.527Z,8.27
2019-03-23T03:15:10.733Z,7.73
2019-03-23T03:17:39.458Z,8.27
2019-03-23T03:20:09.591Z,8.20
2019-03-23T03:22:38.152Z,7.67
2019-03-23T03:25:27.475Z,8.00
2019-03-23T03:27:56.044Z,16.90
2019-03-23T03:30:24.573Z,9.33
2019-03-23T03:32:53.144Z,10.33
2019-03-23T03:35:21.708Z,8.70
2019-03-23T03:37:56.453Z,8.50
2019-03-23T03:40:20.388Z,8.17
2019-03-23T03:42:49.020Z,8.27
2019-03-23T03:45:28.272Z,8.17
2019-03-23T03:47:57.055Z,8.70
2019-03-23T03:50:25.623Z,7.93
2019-03-23T03:52:54.159Z,8.60
2019-03-23T03:55:22.762Z,8.63
2019-03-23T03:57:51.244Z,8.60
2019-03-23T04:00:19.712Z,8.20
2019-03-23T04:02:48.274Z,8.83
2019-03-23T04:05:16.781Z,8.00
2019-03-23T04:07:45.752Z,8.53
2019-03-23T04:10:14.371Z,8.63
2019-03-23T04:12:43.023Z,8.87
2019-03-23T04:15:12.298Z,8.37
2019-03-23T04:17:40.830Z,8.20
2019-03-23T04:20:10.649Z,8.17
2019-03-23T04:22:39.204Z,8.73
2019-03-23T04:25:09.304Z,8.70
2019-03-23T04:27:37.932Z,8.57
2019-03-23T04:30:08.875Z,8.83
2019-03-23T04:32:37.365Z,8.80
2019-03-23T04:35:07.469Z,9.33
2019-03-23T04:37:36.135Z,8.87
2019-03-23T04:40:07.339Z,8.83
2019-03-23T04:42:35.798Z,9.17
2019-03-23T04:45:06.426Z,9.37
2019-03-23T04:47:34.984Z,9.23
2019-03-23T04:50:04.764Z,9.30
2019-03-23T04:52:33.234Z,9.20
2019-03-23T04:55:01.823Z,9.53
2019-03-23T04:57:30.335Z,9.03
2019-03-23T04:59:59.042Z,10.07
2019-03-23T05:02:27.529Z,9.53
2019-03-23T05:04:56.011Z,9.67
2019-03-23T05:07:24.511Z,9.83
2019-03-23T05:09:53.250Z,9.13
2019-03-23T05:12:21.724Z,10.13
2019-03-23T05:14:50.294Z,8.87
2019-03-23T05:17:18.750Z,9.20
2019-03-23T05:19:47.215Z,9.50
2019-03-23T05:22:15.770Z,9.13
2019-03-23T05:24:44.274Z,9.00
2019-03-23T05:27:12.817Z,8.83
2019-03-23T05:29:41.359Z,8.70
2019-03-23T05:32:09.923Z,8.40
2019-03-23T05:34:38.383Z,9.37
2019-03-23T05:37:06.885Z,9.20
2019-03-23T05:39:35.346Z,9.13
2019-03-23T05:42:03.871Z,8.80
2019-03-23T05:44:32.363Z,8.13
2019-03-23T05:47:00.907Z,9.30
2019-03-23T05:49:29.401Z,8.77
2019-03-23T05:51:57.863Z,8.83
2019-03-23T05:54:26.362Z,8.37
2019-03-23T05:56:54.826Z,7.80
2019-03-23T05:59:23.311Z,8.07
2019-03-23T06:01:51.851Z,7.80
2019-03-23T06:04:20.323Z,8.30
2019-03-23T06:06:48.798Z,8.43
2019-03-23T06:09:17.255Z,7.40
2019-03-23T06:11:45.838Z,8.00
2019-03-23T06:14:14.302Z,8.63
2019-03-23T06:16:42.787Z,8.27
2019-03-23T06:19:11.248Z,8.23
2019-03-23T06:21:39.868Z,8.10
2019-03-23T06:24:08.382Z,8.07
2019-03-23T06:26:36.881Z,8.87
2019-03-23T06:29:05.410Z,8.60
2019-03-23T06:31:33.966Z,7.43
2019-03-23T06:34:02.551Z,7.73
2019-03-23T06:36:31.107Z,7.77
2019-03-23T06:39:05.398Z,7.80
2019-03-23T06:41:29.789Z,7.70
2019-03-23T06:43:58.298Z,7.83
2019-03-23T06:46:26.830Z,7.80
2019-03-23T06:48:55.312Z,7.63
2019-03-23T06:51:23.795Z,8.63
2019-03-23T06:53:52.262Z,8.13
2019-03-23T06:56:20.769Z,8.37
2019-03-23T06:58:49.340Z,8.30
2019-03-23T07:01:18.000Z,8.87
2019-03-23T07:03:46.534Z,8.97
2019-03-23T07:06:15.091Z,8.93
2019-03-23T07:08:43.671Z,9.03
2019-03-23T07:11:12.139Z,8.53
2019-03-23T07:13:40.646Z,8.60
2019-03-23T07:16:09.115Z,9.30
2019-03-23T07:18:37.587Z,9.10
2019-03-23T07:21:06.148Z,9.60
2019-03-23T07:23:34.638Z,9.17
2019-03-23T07:26:03.277Z,8.67
2019-03-23T07:28:31.778Z,9.33
2019-03-23T07:31:00.313Z,9.27
2019-03-23T07:33:28.941Z,10.63
2019-03-23T07:35:57.479Z,9.57
2019-03-23T07:38:26.114Z,9.43
2019-03-23T07:40:54.658Z,10.00
2019-03-23T07:43:23.127Z,10.23
2019-03-23T07:45:51.629Z,11.30
2019-03-23T07:48:20.119Z,11.33
2019-03-23T07:50:48.600Z,11.83
2019-03-23T07:53:17.175Z,11.53
2019-03-23T07:55:45.727Z,12.70
2019-03-23T07:58:14.297Z,13.93
2019-03-23T08:00:42.830Z,14.37
2019-03-23T08:03:11.303Z,15.60
2019-03-23T08:05:39.794Z,14.60
2019-03-23T08:08:08.255Z,14.53
2019-03-23T08:10:36.767Z,14.90
2019-03-23T08:13:05.322Z,15.00
2019-03-23T08:15:33.870Z,15.48
2019-03-23T08:18:02.451Z,16.20
2019-03-23T08:20:32.858Z,18.52
2019-03-23T08:23:01.486Z,19.17
2019-03-23T08:25:29.946Z,18.27
2019-03-23T08:27:58.462Z,19.12
2019-03-23T08:30:27.165Z,19.35
2019-03-23T08:32:55.698Z,20.52
2019-03-23T08:35:24.290Z,19.35
2019-03-23T08:37:52.827Z,21.00
2019-03-23T08:40:21.456Z,21.33
2019-03-23T08:42:50.458Z,21.95
2019-03-23T08:45:18.957Z,22.85
2019-03-23T08:47:47.498Z,21.93
2019-03-23T08:50:15.990Z,21.33
2019-03-23T08:52:44.463Z,23.73
2019-03-23T08:55:12.964Z,21.62
2019-03-23T08:57:41.605Z,22.75
2019-03-23T09:00:10.922Z,22.32
2019-03-23T09:02:39.491Z,24.63
2019-03-23T09:05:08.707Z,25.30
2019-03-23T09:07:37.230Z,24.32
2019-03-23T09:10:07.445Z,24.20
2019-03-23T09:12:36.078Z,23.52
2019-03-23T09:15:07.091Z,25.10
2019-03-23T09:17:35.731Z,24.85
2019-03-23T09:20:07.434Z,25.05
2019-03-23T09:22:35.909Z,25.92
2019-03-23T09:25:05.612Z,24.45
2019-03-23T09:27:34.180Z,26.12
2019-03-23T09:30:02.850Z,25.68
2019-03-23T09:32:31.348Z,25.27
2019-03-23T09:34:59.814Z,26.55
2019-03-23T09:37:28.374Z,25.88
2019-03-23T09:39:58.661Z,26.00
2019-03-23T09:42:27.082Z,27.45
2019-03-23T09:44:55.553Z,24.10
2019-03-23T09:47:24.234Z,26.15
2019-03-23T09:49:52.832Z,26.12
2019-03-23T09:52:21.334Z,24.77
2019-03-23T09:54:49.834Z,26.02
2019-03-23T09:57:18.307Z,25.95
2019-03-23T09:59:46.811Z,26.25
2019-03-23T10:02:15.283Z,26.33
2019-03-23T10:04:43.754Z,25.80
2019-03-23T10:07:12.351Z,25.77
2019-03-23T10:09:40.931Z,26.33
2019-03-23T10:12:09.399Z,27.00
2019-03-23T10:14:37.968Z,28.47
2019-03-23T10:17:06.466Z,32.20
2019-03-23T10:19:35.050Z,31.85
2019-03-23T10:22:03.521Z,31.70
2019-03-23T10:24:31.994Z,32.10
2019-03-23T10:27:00.592Z,31.73
2019-03-23T10:29:29.139Z,31.42
2019-03-23T10:31:57.718Z,30.60
2019-03-23T10:34:26.186Z,31.42
2019-03-23T10:36:54.686Z,31.68
2019-03-23T10:39:23.370Z,31.73
2019-03-23T10:41:51.866Z,30.95
2019-03-23T10:44:20.339Z,30.72
2019-03-23T10:46:48.921Z,31.07
2019-03-23T10:49:17.470Z,31.93
2019-03-23T10:51:46.018Z,32.75
2019-03-23T10:54:14.520Z,31.20
2019-03-23T10:56:43.064Z,34.18
2019-03-23T10:59:11.643Z,33.00
2019-03-23T11:01:40.115Z,32.50
2019-03-23T11:04:08.615Z,33.95
2019-03-23T11:06:37.155Z,32.93
2019-03-23T11:09:06.968Z,31.95
2019-03-23T11:11:35.455Z,34.03
2019-03-23T11:14:04.199Z,33.60
2019-03-23T11:16:32.718Z,34.45
2019-03-23T11:19:01.186Z,35.20
2019-03-23T11:21:29.654Z,35.88
2019-03-23T11:23:58.147Z,35.90
2019-03-23T11:26:28.141Z,35.17
2019-03-23T11:28:56.824Z,34.95
2019-03-23T11:31:25.379Z,36.40
2019-03-23T11:33:54.498Z,35.45
2019-03-23T11:36:23.010Z,35.92
2019-03-23T11:38:51.483Z,37.65
2019-03-23T11:41:19.950Z,37.48
2019-03-23T11:43:48.515Z,36.50
2019-03-23T11:46:17.163Z,38.15
2019-03-23T11:48:45.755Z,38.08
2019-03-23T11:51:14.243Z,38.50
2019-03-23T11:53:42.809Z,39.53
2019-03-23T11:56:11.278Z,38.53
2019-03-23T11:58:39.826Z,39.98
2019-03-23T12:01:08.366Z,41.73
2019-03-23T12:03:36.935Z,41.37
2019-03-23T12:06:05.470Z,39.33
2019-03-23T12:08:33.969Z,40.13
2019-03-23T12:11:03.313Z,42.20
2019-03-23T12:13:31.895Z,38.93
2019-03-23T12:16:00.386Z,40.90
2019-03-23T12:18:28.855Z,39.43
2019-03-23T12:20:57.347Z,39.73
2019-03-23T12:23:26.674Z,39.93
2019-03-23T12:25:55.406Z,38.23
2019-03-23T12:28:23.879Z,41.30
2019-03-23T12:30:53.990Z,38.17
2019-03-23T12:33:22.560Z,39.37
2019-03-23T12:35:51.211Z,38.80
2019-03-23T12:38:20.082Z,39.03
2019-03-23T12:40:48.627Z,37.53
2019-03-23T12:43:17.119Z,38.13
2019-03-23T12:45:46.472Z,38.43
2019-03-23T12:48:14.969Z,36.93
2019-03-23T12:50:43.442Z,38.00
2019-03-23T12:53:11.935Z,37.20
2019-03-23T12:55:40.502Z,38.63
2019-03-23T12:58:09.003Z,37.20
2019-03-23T13:00:37.474Z,36.97
2019-03-23T13:03:06.043Z,37.97
2019-03-23T13:05:34.518Z,37.10
2019-03-23T13:08:02.991Z,37.77
2019-03-23T13:10:31.483Z,37.97
2019-03-23T13:12:59.955Z,39.47
2019-03-23T13:15:28.492Z,38.50
2019-03-23T13:17:57.130Z,37.53
2019-03-23T13:20:25.766Z,37.87
2019-03-23T13:22:54.350Z,38.77
2019-03-23T13:25:22.825Z,38.30
2019-03-23T13:27:51.395Z,38.93
2019-03-23T13:30:19.959Z,38.73
2019-03-23T13:32:48.437Z,37.27
2019-03-23T13:35:17.030Z,36.30
2019-03-23T13:37:45.970Z,39.27
2019-03-23T13:40:14.775Z,38.83
2019-03-23T13:42:43.355Z,37.93
2019-03-23T13:45:12.358Z,38.00
2019-03-23T13:47:41.073Z,36.27
2019-03-23T13:50:11.080Z,37.40
2019-03-23T13:52:39.646Z,36.90
2019-03-23T13:55:09.954Z,37.57
2019-03-23T13:57:38.532Z,38.03
2019-03-23T14:00:08.340Z,37.07
2019-03-23T14:02:36.883Z,36.57
2019-03-23T14:05:12.261Z,36.53
2019-03-23T14:07:36.206Z,37.27
2019-03-23T14:10:06.249Z,39.27
2019-03-23T14:12:34.786Z,37.27
2019-03-23T14:15:03.554Z,38.00
2019-03-23T14:17:32.118Z,35.30
2019-03-23T14:20:00.590Z,39.97
2019-03-23T14:22:29.251Z,37.83
2019-03-23T14:24:57.790Z,37.80
2019-03-23T14:27:26.362Z,39.20
2019-03-23T14:29:54.918Z,39.37
2019-03-23T14:32:23.478Z,36.80
2019-03-23T14:34:51.951Z,37.57
2019-03-23T14:37:20.518Z,40.30
2019-03-23T14:39:49.000Z,39.00
2019-03-23T14:42:17.512Z,38.23
2019-03-23T14:44:46.050Z,40.30
2019-03-23T14:47:14.520Z,39.23
2019-03-23T14:49:43.096Z,37.60
2019-03-23T14:52:11.595Z,39.23
2019-03-23T14:54:40.078Z,40.50
2019-03-23T14:57:08.628Z,40.87
2019-03-23T14:59:37.130Z,41.93
2019-03-23T15:02:05.671Z,40.50
2019-03-23T15:04:34.284Z,40.40
2019-03-23T15:07:02.751Z,40.47
2019-03-23T15:09:31.266Z,40.20
2019-03-23T15:11:59.811Z,39.87
2019-03-23T15:14:28.379Z,39.43
2019-03-23T15:16:56.866Z,40.87
2019-03-23T15:19:25.368Z,39.80
2019-03-23T15:21:53.838Z,39.90
2019-03-23T15:24:22.303Z,39.27
2019-03-23T15:26:50.819Z,37.87
2019-03-23T15:29:19.287Z,39.53
2019-03-23T15:31:47.777Z,39.43
2019-03-23T15:34:16.295Z,39.23
2019-03-23T15:36:44.767Z,36.23
2019-03-23T15:39:13.240Z,37.23
2019-03-23T15:41:41.806Z,38.93
2019-03-23T15:44:10.279Z,35.33
2019-03-23T15:46:38.771Z,38.70
2019-03-23T15:49:08.900Z,39.83
2019-03-23T15:51:37.467Z,38.73
2019-03-23T15:54:06.000Z,37.70
2019-03-23T15:56:34.680Z,38.93
2019-03-23T15:59:03.224Z,39.90
2019-03-23T16:01:31.759Z,39.20
2019-03-23T16:04:00.364Z,40.30
2019-03-23T16:06:28.906Z,40.50
2019-03-23T16:08:57.383Z,39.07
2019-03-23T16:11:25.871Z,39.47
2019-03-23T16:13:54.378Z,39.70
2019-03-23T16:16:22.850Z,40.67
2019-03-23T16:18:51.343Z,39.80
2019-03-23T16:21:19.884Z,40.80
2019-03-23T16:23:48.370Z,38.13
2019-03-23T16:26:16.838Z,40.83
2019-03-23T16:28:45.344Z,40.50
2019-03-23T16:31:13.874Z,40.33
2019-03-23T16:33:42.435Z,40.63
2019-03-23T16:36:10.939Z,41.70
2019-03-23T16:38:39.506Z,40.47
2019-03-23T16:41:08.127Z,41.43
2019-03-23T16:43:36.647Z,40.77
2019-03-23T16:46:05.219Z,41.93
2019-03-23T16:48:33.799Z,42.30
2019-03-23T16:51:02.366Z,42.90
2019-03-23T16:53:30.846Z,41.87
2019-03-23T16:55:59.402Z,41.97
2019-03-23T16:58:27.882Z,42.10
2019-03-23T17:00:56.421Z,41.03
2019-03-23T17:03:25.000Z,40.57
2019-03-23T17:05:53.642Z,40.97
2019-03-23T17:08:22.115Z,40.93
2019-03-23T17:10:50.859Z,38.93
2019-03-23T17:13:19.330Z,40.77
2019-03-23T17:15:47.976Z,40.87
2019-03-23T17:18:16.547Z,41.07
2019-03-23T17:20:45.089Z,40.53
2019-03-23T17:23:13.950Z,40.57
2019-03-23T17:25:42.657Z,38.70
2019-03-23T17:28:11.294Z,39.17
2019-03-23T17:30:39.795Z,39.27
2019-03-23T17:33:09.009Z,40.47
2019-03-23T17:35:37.641Z,38.87
2019-03-23T17:38:06.319Z,39.23
2019-03-23T17:40:34.886Z,37.03
2019-03-23T17:43:06.134Z,39.10
2019-03-23T17:45:33.851Z,37.60
2019-03-23T17:48:02.394Z,38.70
2019-03-23T17:50:30.985Z,39.30
2019-03-23T17:52:59.530Z,38.47
2019-03-23T17:55:28.172Z,37.50
2019-03-23T17:57:56.675Z,39.20
2019-03-23T18:00:25.390Z,38.53
2019-03-23T18:02:53.882Z,38.07
2019-03-23T18:05:22.820Z,38.80
2019-03-23T18:07:51.659Z,38.00
2019-03-23T18:10:20.262Z,38.20
2019-03-23T18:12:48.886Z,39.33
2019-03-23T18:15:17.456Z,38.60
2019-03-23T18:17:45.914Z,39.57
2019-03-23T18:20:14.815Z,38.93
2019-03-23T18:22:43.279Z,37.37
2019-03-23T18:25:12.610Z,38.80
2019-03-23T18:27:41.080Z,38.03
2019-03-23T18:30:27.375Z,38.17
2019-03-23T18:32:55.910Z,39.47
2019-03-23T18:35:24.568Z,39.93
2019-03-23T18:37:53.107Z,41.53
2019-03-23T18:40:21.692Z,44.47
2019-03-23T18:42:50.371Z,39.60
2019-03-23T18:45:19.017Z,40.03
2019-03-23T18:47:47.682Z,39.37
2019-03-23T18:50:16.266Z,40.33
2019-03-23T18:52:44.879Z,39.93
2019-03-23T18:55:13.532Z,38.83
2019-03-23T18:57:42.110Z,40.57
2019-03-23T19:00:12.259Z,41.23
2019-03-23T19:02:40.798Z,40.30
2019-03-23T19:05:09.552Z,40.27
2019-03-23T19:07:38.023Z,41.50
2019-03-23T19:10:07.443Z,40.43
2019-03-23T19:12:35.938Z,39.77
2019-03-23T19:15:06.442Z,39.90
2019-03-23T19:17:35.102Z,40.07
2019-03-23T19:20:06.435Z,39.43
2019-03-23T19:22:34.906Z,39.93
2019-03-23T19:25:03.972Z,40.77
2019-03-23T19:27:32.438Z,41.17
2019-03-23T19:30:00.978Z,40.17
2019-03-23T19:32:29.474Z,40.13
2019-03-23T19:35:00.150Z,42.13
2019-03-23T19:37:28.191Z,40.93
2019-03-23T19:39:57.650Z,40.37
2019-03-23T19:42:26.142Z,39.97
2019-03-23T19:44:54.630Z,41.17
2019-03-23T19:47:23.271Z,40.10
2019-03-23T19:49:51.765Z,42.20
2019-03-23T19:52:20.335Z,39.90
2019-03-23T19:54:48.875Z,40.83
2019-03-23T19:57:17.366Z,40.00
2019-03-23T19:59:45.838Z,39.83
2019-03-23T20:02:14.310Z,41.23
2019-03-23T20:04:42.866Z,40.50
2019-03-23T20:07:11.399Z,41.43
2019-03-23T20:09:39.935Z,40.33
2019-03-23T20:12:08.428Z,41.63
2019-03-23T20:14:37.047Z,41.50
2019-03-23T20:17:05.631Z,39.57
2019-03-23T20:19:34.126Z,41.53
2019-03-23T20:22:02.599Z,42.10
2019-03-23T20:24:31.159Z,41.23
2019-03-23T20:27:00.411Z,39.87
2019-03-23T20:29:28.898Z,39.07
2019-03-23T20:31:57.458Z,39.70
2019-03-23T20:34:25.959Z,43.80
2019-03-23T20:36:54.594Z,41.70
2019-03-23T20:39:23.062Z,44.00
2019-03-23T20:41:51.550Z,41.20
2019-03-23T20:44:20.039Z,38.60
2019-03-23T20:46:48.875Z,39.67
2019-03-23T20:49:17.371Z,39.13
2019-03-23T20:51:45.843Z,32.77
2019-03-23T20:54:14.604Z,35.50
2019-03-23T20:56:43.148Z,35.90
2019-03-23T20:59:11.678Z,36.13
2019-03-23T21:01:40.246Z,37.20
2019-03-23T21:04:08.720Z,35.77
2019-03-23T21:06:37.278Z,37.60
2019-03-23T21:09:07.582Z,38.73
2019-03-23T21:11:36.446Z,37.80
2019-03-23T21:14:05.046Z,36.90
2019-03-23T21:16:33.633Z,38.67
2019-03-23T21:19:02.194Z,37.93
2019-03-23T21:21:30.658Z,40.17
2019-03-23T21:23:59.215Z,38.83
2019-03-23T21:26:27.810Z,36.20
2019-03-23T21:28:57.177Z,38.07
2019-03-23T21:31:25.714Z,38.10
2019-03-23T21:33:54.215Z,39.20
2019-03-23T21:36:22.686Z,39.33
2019-03-23T21:38:51.222Z,39.67
2019-03-23T21:41:19.712Z,37.57
2019-03-23T21:43:48.284Z,39.10
2019-03-23T21:46:16.818Z,38.87
2019-03-23T21:48:45.287Z,39.73
2019-03-23T21:51:13.783Z,38.57
2019-03-23T21:53:42.341Z,38.17
2019-03-23T21:56:11.017Z,39.87
2019-03-23T21:58:39.579Z,37.80
2019-03-23T22:01:08.376Z,36.47
2019-03-23T22:03:37.214Z,38.30
2019-03-23T22:06:05.779Z,45.33
2019-03-23T22:08:34.257Z,38.47
2019-03-23T22:11:02.811Z,37.40
2019-03-23T22:13:31.307Z,40.03
2019-03-23T22:15:59.796Z,37.43
2019-03-23T22:18:28.291Z,37.40
2019-03-23T22:20:56.794Z,38.73
2019-03-23T22:23:25.335Z,38.53
2019-03-23T22:25:54.135Z,36.27
2019-03-23T22:28:22.674Z,36.27
2019-03-23T22:30:51.251Z,37.20
2019-03-23T22:33:19.719Z,37.30
2019-03-23T22:35:48.266Z,37.70
2019-03-23T22:38:16.763Z,33.67
2019-03-23T22:40:45.330Z,35.57
2019-03-23T22:43:13.802Z,36.37
2019-03-23T22:45:42.474Z,34.20
2019-03-23T22:48:11.019Z,35.57
2019-03-23T22:50:39.485Z,34.23
2019-03-23T22:53:08.050Z,34.63
2019-03-23T22:55:36.516Z,34.83
2019-03-23T22:58:05.010Z,33.33
2019-03-23T23:00:47.232Z,34.57
2019-03-23T23:03:15.868Z,31.43
2019-03-23T23:05:44.770Z,32.27
2019-03-23T23:08:13.226Z,32.07
2019-03-23T23:10:41.817Z,31.70
2019-03-23T23:13:10.441Z,32.10
2019-03-23T23:15:39.114Z,31.37
2019-03-23T23:18:07.708Z,30.87
2019-03-23T23:20:36.253Z,29.50
2019-03-23T23:23:04.792Z,31.43
2019-03-23T23:25:33.290Z,30.67
2019-03-23T23:28:01.827Z,31.50
2019-03-23T23:30:30.435Z,30.30
2019-03-23T23:32:58.904Z,29.30
2019-03-23T23:35:27.582Z,31.30
2019-03-23T23:37:56.043Z,30.30
2019-03-23T23:40:24.545Z,29.10
2019-03-23T23:42:53.007Z,29.00
2019-03-23T23:45:21.507Z,28.63
2019-03-23T23:47:50.019Z,28.90
2019-03-23T23:50:18.553Z,28.87
2019-03-23T23:52:47.023Z,26.83
2019-03-23T23:55:15.487Z,25.83
2019-03-23T23:57:43.987Z,27.73
